Time;durP1;ratioP1;P1;durP2;ratioP2;P2;SDS_P1;SDS_P2;PMS_P1;PMS_P2;Temp;Humidity;BMP_temperature;BMP_pressure;BME280_temperature;BME280_humidity;BME280_pressure;Samples;Min_cycle;Max_cycle;Signal;HPM_P1;HPM_P2
2022/04/25 00:01:34;;;;;;;4.30;2.50;;;17.40;55.20;;;;;;5015485;28;20053;-73
2022/04/25 00:04:01;;;;;;;4.78;2.70;;;16.10;54.50;;;;;;5015663;28;20513;-73
2022/04/25 00:06:28;;;;;;;4.20;2.70;;;16.30;54.60;;;;;;5015696;28;20079;-73
2022/04/25 00:08:55;;;;;;;2.90;2.35;;;16.00;54.40;;;;;;5015485;28;20049;-72
2022/04/25 00:11:21;;;;;;;3.15;2.75;;;16.90;55.00;;;;;;5015010;28;20060;-72
2022/04/25 00:13:49;;;;;;;4.35;2.80;;;17.10;49.90;;;;;;5015218;28;20049;-72
2022/04/25 00:16:18;;;;;;;3.38;2.53;;;17.10;55.10;;;;;;5015433;28;20512;-72
2022/04/25 00:18:45;;;;;;;3.40;2.60;;;16.90;55.40;;;;;;5015108;28;20104;-72
2022/04/25 00:21:11;;;;;;;3.15;2.47;;;16.50;55.10;;;;;;5032826;28;20053;-72
2022/04/25 00:23:38;;;;;;;3.35;2.22;;;;;;;;;;5015058;28;20058;-72
2022/04/25 00:26:06;;;;;;;4.10;2.35;;;17.50;55.50;;;;;;5015470;28;20144;-73
2022/04/25 00:28:33;;;;;;;2.67;2.13;;;;;;;;;;5014998;28;20061;-72
2022/04/25 00:31:01;;;;;;;4.45;2.70;;;17.20;55.40;;;;;;4995343;28;20058;-72
2022/04/25 00:33:27;;;;;;;4.03;2.65;;;16.10;54.60;;;;;;4995495;28;20061;-72
2022/04/25 00:35:54;;;;;;;3.15;2.40;;;16.90;55.20;;;;;;4995284;28;20084;-72
2022/04/25 00:38:21;;;;;;;3.10;2.50;;;16.80;55.50;;;;;;4995616;28;20058;-72
2022/04/25 00:40:47;;;;;;;2.85;2.25;;;16.90;55.20;;;;;;5013388;28;20067;-72
2022/04/25 00:43:14;;;;;;;3.30;2.53;;;;;;;;;;5032409;28;20049;-72
2022/04/25 00:45:41;;;;;;;3.88;2.60;;;16.50;55.10;;;;;;5014610;28;20060;-72
2022/04/25 00:48:09;;;;;;;3.92;2.22;;;16.70;55.30;;;;;;5014777;28;20136;-72
2022/04/25 00:50:38;;;;;;;3.35;2.63;;;16.80;55.70;;;;;;5013375;28;20053;-72
2022/04/25 00:53:05;;;;;;;3.05;2.60;;;17.10;55.40;;;;;;5014675;28;20058;-72
2022/04/25 00:55:32;;;;;;;3.88;2.75;;;17.70;56.00;;;;;;5014564;28;20049;-72
2022/04/25 00:57:59;;;;;;;3.95;2.65;;;16.80;55.20;;;;;;5014704;28;20049;-73
2022/04/25 01:00:25;;;;;;;2.63;2.25;;;16.30;55.30;;;;;;5014438;28;20057;-72
2022/04/25 01:02:52;;;;;;;4.15;2.42;;;16.90;55.50;;;;;;5014860;28;20053;-72
2022/04/25 01:05:20;;;;;;;5.10;2.50;;;16.60;55.30;;;;;;5014253;28;20050;-72
2022/04/25 01:07:47;;;;;;;3.03;2.40;;;16.90;55.50;;;;;;5014738;28;20053;-72
2022/04/25 01:10:14;;;;;;;3.08;2.47;;;17.60;55.80;;;;;;5014085;28;20061;-72
2022/04/25 01:12:41;;;;;;;3.55;2.47;;;16.10;55.20;;;;;;5014627;28;20053;-72
2022/04/25 01:15:09;;;;;;;2.72;2.33;;;16.40;55.40;;;;;;5014506;28;20067;-72
2022/04/25 01:17:36;;;;;;;3.58;2.55;;;16.00;55.10;;;;;;5014525;28;20059;-72
2022/04/25 01:20:03;;;;;;;3.95;2.70;;;16.80;55.70;;;;;;5014053;28;20057;-72
2022/04/25 01:22:33;;;;;;;3.80;2.40;;;16.90;55.70;;;;;;5013980;28;20498;-72
2022/04/25 01:27:45;;;;;;;4.13;2.53;;;16.80;55.70;;;;;;5014429;28;20049;-72
2022/04/25 01:30:12;;;;;;;4.07;2.65;;;16.60;55.20;;;;;;5014000;28;20064;-72
2022/04/25 01:32:39;;;;;;;3.65;2.60;;;16.50;56.10;;;;;;5031906;28;20056;-72
2022/04/25 01:35:06;;;;;;;2.67;2.40;;;16.60;55.60;;;;;;5014063;28;20049;-72
2022/04/25 01:37:33;;;;;;;3.80;2.60;;;15.90;55.10;;;;;;5014436;28;20059;-72
2022/04/25 01:40:01;;;;;;;3.25;2.28;;;17.50;55.90;;;;;;5013768;28;20053;-72
2022/04/25 01:42:28;;;;;;;3.28;2.60;;;16.70;55.70;;;;;;5013828;28;20059;-72
2022/04/25 01:44:54;;;;;;;4.43;2.67;;;16.80;50.50;;;;;;5013717;28;20132;-72
2022/04/25 01:47:21;;;;;;;2.97;2.35;;;16.90;55.80;;;;;;5014198;28;20478;-72
2022/04/25 01:49:48;;;;;;;3.60;2.90;;;16.60;55.50;;;;;;5013660;28;20489;-72
2022/04/25 01:52:20;;;;;;;3.67;2.55;;;15.90;55.00;;;;;;5014071;28;20057;-72
2022/04/25 01:54:48;;;;;;;3.42;2.70;;;16.70;55.80;;;;;;5013796;28;20046;-72
2022/04/25 01:57:16;;;;;;;3.55;2.53;;;16.60;55.60;;;;;;5013939;28;20065;-72
2022/04/25 01:59:44;;;;;;;3.38;2.60;;;;;;;;;;5013547;28;20053;-72
2022/04/25 02:02:12;;;;;;;3.65;2.50;;;16.30;55.70;;;;;;5013908;28;20054;-72
2022/04/25 02:04:38;;;;;;;3.95;2.60;;;16.70;55.80;;;;;;5013693;28;20128;-72
2022/04/25 02:07:06;;;;;;;3.65;2.60;;;16.60;55.60;;;;;;5013728;28;20059;-72
2022/04/25 02:09:32;;;;;;;4.53;2.58;;;16.20;55.20;;;;;;5013719;28;20064;-72
2022/04/25 02:11:59;;;;;;;3.53;2.50;;;17.10;55.90;;;;;;5013403;28;20409;-72
2022/04/25 02:14:28;;;;;;;3.60;2.78;;;16.50;49.70;;;;;;5014045;28;20045;-72
2022/04/25 02:16:55;;;;;;;3.22;2.28;;;16.50;55.50;;;;;;5013650;28;20053;-72
2022/04/25 02:19:22;;;;;;;4.55;2.67;;;16.60;55.70;;;;;;5013623;28;20053;-72
2022/04/25 02:21:49;;;;;;;5.00;2.72;;;;;;;;;;5013538;28;20064;-72
2022/04/25 02:24:16;;;;;;;4.38;2.72;;;16.70;55.60;;;;;;5013907;28;20062;-72
2022/04/25 02:26:43;;;;;;;4.30;2.70;;;16.50;55.60;;;;;;5013257;28;20136;-72
2022/04/25 02:29:10;;;;;;;3.78;2.50;;;15.90;55.20;;;;;;5013746;28;20558;-72
2022/04/25 02:31:38;;;;;;;2.90;2.33;;;15.90;55.20;;;;;;5013430;28;20053;-72
2022/04/25 02:34:04;;;;;;;3.13;2.40;;;16.40;55.80;;;;;;5015825;28;20057;-72
2022/04/25 02:36:31;;;;;;;3.63;2.50;;;16.30;55.70;;;;;;5017522;28;20399;-72
2022/04/25 02:38:58;;;;;;;4.78;2.70;;;16.50;55.80;;;;;;5017012;28;20433;-72
2022/04/25 02:41:25;;;;;;;3.88;2.20;;;16.60;55.60;;;;;;5034685;28;20056;-72
2022/04/25 02:43:52;;;;;;;2.88;2.40;;;16.20;55.70;;;;;;5017222;28;20516;-72
2022/04/25 02:46:18;;;;;;;3.20;2.38;;;16.90;55.80;;;;;;5017162;28;20061;-72
2022/04/25 02:48:46;;;;;;;4.03;2.47;;;16.60;56.00;;;;;;5034770;28;20132;-72
2022/04/25 02:51:14;;;;;;;3.55;2.67;;;16.50;55.60;;;;;;5034409;28;20056;-72
2022/04/25 02:53:41;;;;;;;2.83;2.17;;;16.40;55.70;;;;;;5016721;28;20132;-72
2022/04/25 02:56:07;;;;;;;3.95;2.60;;;16.50;55.70;;;;;;5017131;28;20058;-72
2022/04/25 02:58:35;;;;;;;3.38;2.42;;;16.50;49.70;;;;;;5017090;28;20140;-72
2022/04/25 03:01:04;;;;;;;3.60;2.47;;;15.90;55.30;;;;;;5016197;28;20487;-72
2022/04/25 03:03:32;;;;;;;4.90;2.83;;;16.00;52.50;;;;;;5016830;28;20064;-72
2022/04/25 03:06:01;;;;;;;3.42;2.40;;;16.10;55.60;;;;;;5016486;28;20053;-72
2022/04/25 03:08:28;;;;;;;3.20;2.65;;;16.50;55.70;;;;;;5016853;28;20053;-72
2022/04/25 03:10:56;;;;;;;2.75;2.22;;;16.40;55.90;;;;;;5016465;28;20414;-72
2022/04/25 03:13:24;;;;;;;3.72;2.58;;;16.50;56.00;;;;;;5034394;28;20077;-72
2022/04/25 03:15:51;;;;;;;4.70;2.60;;;;;;;;;;5016655;28;20049;-72
2022/04/25 03:18:19;;;;;;;3.08;2.50;;;15.60;55.30;;;;;;5016318;28;20225;-72
2022/04/25 03:20:48;;;;;;;3.95;2.38;;;16.40;55.70;;;;;;5016238;28;20057;-72
2022/04/25 03:23:16;;;;;;;4.13;2.47;;;16.40;49.70;;;;;;5016671;28;20509;-72
2022/04/25 03:25:43;;;;;;;5.00;2.45;;;16.40;55.70;;;;;;5016255;28;20051;-72
2022/04/25 03:28:09;;;;;;;3.83;2.40;;;15.90;55.70;;;;;;5016544;28;20437;-72
2022/04/25 03:30:36;;;;;;;3.45;2.67;;;16.30;56.00;;;;;;5015483;28;20057;-72
2022/04/25 03:33:03;;;;;;;3.67;2.40;;;16.20;55.50;;;;;;5016376;28;20643;-72
2022/04/25 03:35:30;;;;;;;2.90;2.30;;;16.30;56.00;;;;;;5033854;28;20092;-72
2022/04/25 03:37:57;;;;;;;3.30;2.20;;;16.40;55.70;;;;;;5016360;28;20077;-72
2022/04/25 03:40:26;;;;;;;4.35;2.22;;;16.00;55.50;;;;;;5015928;28;20054;-72
2022/04/25 03:42:55;;;;;;;2.72;2.42;;;16.30;56.00;;;;;;5016396;28;20474;-72
2022/04/25 03:45:22;;;;;;;3.10;2.20;;;16.40;55.60;;;;;;5015089;28;20103;-72
2022/04/25 03:47:49;;;;;;;4.07;2.20;;;16.20;55.90;;;;;;5015856;28;20059;-72
2022/04/25 03:50:15;;;;;;;3.13;2.15;;;16.30;55.70;;;;;;5015728;28;20059;-72
2022/04/25 03:52:43;;;;;;;3.30;2.08;;;15.70;55.60;;;;;;5033672;28;20052;-72
2022/04/25 03:57:56;;;;;;;3.90;2.38;;;16.30;56.00;;;;;;5016053;28;20045;-72
2022/04/25 04:00:23;;;;;;;2.92;2.00;;;16.10;55.90;;;;;;5015094;28;20395;-72
2022/04/25 04:02:50;;;;;;;3.17;2.50;;;16.20;53.60;;;;;;5033332;28;20049;-72
2022/04/25 04:05:17;;;;;;;4.00;2.30;;;16.50;55.90;;;;;;5015543;28;20483;-72
2022/04/25 04:07:44;;;;;;;2.83;2.17;;;16.30;53.10;;;;;;5015668;28;20050;-72
2022/04/25 04:10:11;;;;;;;2.65;2.10;;;16.30;56.00;;;;;;5032830;28;20401;-72
2022/04/25 04:12:38;;;;;;;3.35;2.08;;;;;;;;;;5015781;28;20060;-72
2022/04/25 04:15:07;;;;;;;3.00;2.30;;;15.80;55.50;;;;;;5015447;28;20414;-72
2022/04/25 04:17:34;;;;;;;2.85;2.22;;;;;;;;;;5015417;28;20049;-72
2022/04/25 04:20:02;;;;;;;3.78;2.20;;;16.40;55.50;;;;;;5015131;28;20055;-72
2022/04/25 04:22:30;;;;;;;3.28;2.30;;;16.50;56.10;;;;;;5015388;28;20468;-72
2022/04/25 04:25:00;;;;;;;3.20;2.03;;;16.20;55.50;;;;;;5015257;28;20052;-72
2022/04/25 04:27:26;;;;;;;2.80;2.30;;;16.40;55.80;;;;;;5015381;28;20053;-72
2022/04/25 04:29:53;;;;;;;2.88;2.08;;;16.40;55.70;;;;;;5014986;28;20053;-72
2022/04/25 04:32:22;;;;;;;2.92;2.28;;;17.10;56.20;;;;;;5015018;28;20053;-72
2022/04/25 04:34:49;;;;;;;2.67;2.08;;;16.40;50.80;;;;;;5015246;28;20132;-72
2022/04/25 04:37:15;;;;;;;2.75;2.10;;;16.40;55.80;;;;;;5015271;28;20079;-72
2022/04/25 04:39:42;;;;;;;2.90;2.10;;;16.40;55.70;;;;;;5014627;28;20051;-72
2022/04/25 04:42:09;;;;;;;3.45;2.20;;;;;;;;;;5015076;28;20053;-72
2022/04/25 04:44:36;;;;;;;3.30;2.20;;;15.70;55.50;;;;;;5014791;28;20060;-72
2022/04/25 04:47:04;;;;;;;2.67;1.90;;;16.40;53.50;;;;;;5015056;28;20065;-72
2022/04/25 04:49:32;;;;;;;2.78;2.10;;;17.20;56.30;;;;;;5032204;28;20049;-72
2022/04/25 04:51:59;;;;;;;3.28;2.25;;;16.30;55.80;;;;;;5014757;28;20067;-72
2022/04/25 04:54:26;;;;;;;3.83;2.10;;;16.10;56.00;;;;;;5014827;28;20067;-72
2022/04/25 04:56:52;;;;;;;4.15;2.25;;;16.40;55.90;;;;;;5013978;28;20054;-72
2022/04/25 04:59:19;;;;;;;2.75;1.98;;;16.10;55.90;;;;;;5014587;28;20057;-73
2022/04/25 05:01:46;;;;;;;3.30;2.30;;;16.40;55.80;;;;;;5031983;28;20045;-72
2022/04/25 05:04:13;;;;;;;3.47;1.92;;;16.30;55.80;;;;;;5014768;28;20063;-72
2022/04/25 05:06:41;;;;;;;3.33;1.95;;;16.20;49.70;;;;;;5014448;28;20417;-72
2022/04/25 05:09:09;;;;;;;3.33;2.00;;;;;;;;;;5014644;28;20053;-72
2022/04/25 05:11:35;;;;;;;3.25;2.20;;;15.70;55.70;;;;;;5014056;28;20494;-72
2022/04/25 05:14:08;;;;;;;3.45;2.05;;;16.40;55.70;;;;;;5014299;28;20054;-72
2022/04/25 05:16:34;;;;;;;3.53;1.77;;;16.40;55.70;;;;;;5014387;28;20049;-72
2022/04/25 05:19:02;;;;;;;3.30;1.95;;;16.40;56.00;;;;;;5014525;28;20057;-73
2022/04/25 05:21:29;;;;;;;4.43;2.22;;;16.30;56.10;;;;;;5014121;28;20087;-72
2022/04/25 05:23:57;;;;;;;3.67;2.05;;;15.50;55.30;;;;;;5014213;28;20063;-72
2022/04/25 05:26:24;;;;;;;3.30;2.42;;;;;;;;;;5014232;28;20049;-72
2022/04/25 05:28:51;;;;;;;4.20;2.20;;;15.70;55.50;;;;;;5014204;28;20053;-72
2022/04/25 05:31:18;;;;;;;3.47;2.28;;;;;;;;;;5031434;28;20051;-72
2022/04/25 05:33:45;;;;;;;2.88;2.10;;;16.20;56.00;;;;;;5013868;28;20394;-72
2022/04/25 05:36:12;;;;;;;2.50;2.15;;;;;;;;;;5013969;28;20055;-72
2022/04/25 05:38:39;;;;;;;4.03;2.53;;;16.30;56.10;;;;;;5014370;28;20049;-72
2022/04/25 05:41:09;;;;;;;2.75;2.03;;;16.40;55.80;;;;;;5011604;28;20054;-72
2022/04/25 05:43:37;;;;;;;3.65;2.20;;;16.10;55.70;;;;;;5011125;28;20053;-72
2022/04/25 05:46:04;;;;;;;3.95;2.25;;;;;;;;;;5013564;28;20403;-72
2022/04/25 05:53:59;;;;;;;3.20;2.22;;;16.20;55.70;;;;;;5014261;28;20160;-72
2022/04/25 05:56:27;;;;;;;3.42;2.05;;;16.20;55.80;;;;;;5014035;28;20053;-72
2022/04/25 05:58:54;;;;;;;2.80;2.20;;;16.10;55.70;;;;;;5014167;28;20079;-72
2022/04/25 06:01:21;;;;;;;3.22;2.10;;;;;;;;;;5013369;28;20490;-72
2022/04/25 06:03:48;;;;;;;3.28;2.20;;;16.40;52.10;;;;;;5014135;28;20115;-72
2022/04/25 06:06:14;;;;;;;2.92;2.00;;;16.30;56.00;;;;;;5013922;28;20577;-72
2022/04/25 06:08:41;;;;;;;4.10;2.22;;;16.20;55.90;;;;;;5032846;28;20052;-72
2022/04/25 06:11:08;;;;;;;2.78;2.20;;;16.30;55.70;;;;;;5017695;28;20139;-72
2022/04/25 06:13:36;;;;;;;2.55;2.00;;;16.20;55.70;;;;;;5035350;28;20544;-72
2022/04/25 06:16:05;;;;;;;3.03;2.00;;;;;;;;;;5014120;28;20426;-71
2022/04/25 06:18:32;;;;;;;2.75;2.00;;;16.30;55.70;;;;;;5020657;28;20046;-70
2022/04/25 06:20:59;;;;;;;3.00;2.42;;;16.50;55.80;;;;;;5013838;28;20425;-70
2022/04/25 06:23:26;;;;;;;2.90;2.17;;;16.40;55.70;;;;;;5017220;28;20053;-71
2022/04/25 06:25:52;;;;;;;4.88;2.30;;;16.30;55.60;;;;;;5034775;28;20053;-69
2022/04/25 06:28:19;;;;;;;3.50;2.25;;;15.70;55.50;;;;;;5016808;28;20566;-71
2022/04/25 06:30:47;;;;;;;4.03;2.40;;;16.30;55.90;;;;;;5016606;28;20099;-72
2022/04/25 06:33:14;;;;;;;2.90;2.20;;;16.50;55.70;;;;;;5034776;28;20053;-72
2022/04/25 06:35:41;;;;;;;3.00;2.08;;;16.40;55.80;;;;;;5034621;28;20053;-72
2022/04/25 06:38:08;;;;;;;2.92;2.30;;;;;;;;;;5034537;28;20046;-71
2022/04/25 06:40:35;;;;;;;2.45;2.00;;;16.50;55.80;;;;;;5016499;28;20487;-72
2022/04/25 06:43:02;;;;;;;4.05;2.20;;;16.90;56.00;;;;;;5014367;28;20045;-72
2022/04/25 06:45:28;;;;;;;3.38;2.10;;;16.50;55.40;;;;;;5033707;28;20048;-72
2022/04/25 06:47:56;;;;;;;3.65;2.08;;;16.50;55.50;;;;;;5034261;28;20045;-72
2022/04/25 06:50:23;;;;;;;3.35;2.13;;;16.50;55.20;;;;;;5031444;28;20051;-72
2022/04/25 06:52:50;;;;;;;3.53;2.10;;;16.50;55.20;;;;;;5034216;28;20124;-72
2022/04/25 06:55:18;;;;;;;3.20;2.20;;;17.30;55.80;;;;;;5016552;28;20064;-72
2022/04/25 06:57:44;;;;;;;3.78;1.90;;;16.70;50.80;;;;;;5034214;28;20045;-72
2022/04/25 07:00:12;;;;;;;3.03;2.00;;;15.90;54.90;;;;;;5015770;28;20458;-73
2022/04/25 07:02:39;;;;;;;4.10;2.20;;;16.70;50.90;;;;;;5033866;28;20075;-72
2022/04/25 07:05:08;;;;;;;2.78;2.00;;;16.80;55.50;;;;;;5017122;28;20053;-72
2022/04/25 07:07:35;;;;;;;2.38;2.03;;;16.90;54.10;;;;;;5034594;28;20402;-72
2022/04/25 07:10:01;;;;;;;3.35;2.08;;;16.80;55.20;;;;;;5016370;28;20045;-72
2022/04/25 07:12:28;;;;;;;4.75;2.40;;;15.90;54.70;;;;;;5015943;28;20232;-73
2022/04/25 07:14:55;;;;;;;5.53;2.75;;;16.90;52.70;;;;;;5013141;28;20061;-74
2022/04/25 07:17:21;;;;;;;3.47;2.72;;;16.50;55.20;;;;;;5013573;28;20050;-73
2022/04/25 07:19:48;;;;;;;5.25;2.90;;;17.60;55.90;;;;;;5014262;28;20418;-72
2022/04/25 07:30:30;;;;;;;3.30;2.30;;;16.90;55.30;;;;;;4986215;28;20079;-72
2022/04/25 07:32:57;;;;;;;4.57;2.40;;;17.60;56.10;;;;;;5016313;28;20057;-72
2022/04/25 07:35:24;;;;;;;3.10;2.08;;;16.50;55.00;;;;;;5016594;28;20061;-72
2022/04/25 07:37:52;;;;;;;2.65;2.17;;;16.90;55.50;;;;;;5016351;28;20073;-73
2022/04/25 07:40:18;;;;;;;3.33;2.10;;;16.80;55.20;;;;;;5017335;28;20061;-72
2022/04/25 07:42:45;;;;;;;4.50;2.30;;;;;;;;;;5022884;28;20057;-72
2022/04/25 07:45:12;;;;;;;2.50;1.80;;;17.00;55.50;;;;;;5032437;28;20079;-72
2022/04/25 07:47:42;;;;;;;4.05;2.30;;;17.70;56.00;;;;;;5014044;28;20056;-72
2022/04/25 07:50:10;;;;;;;2.97;2.10;;;16.80;55.10;;;;;;5016184;28;20084;-72
2022/04/25 07:52:37;;;;;;;2.60;2.13;;;16.80;55.10;;;;;;5015630;28;20092;-72
2022/04/25 07:55:06;;;;;;;2.97;2.00;;;16.60;55.00;;;;;;5030322;28;20064;-73
2022/04/25 07:57:33;;;;;;;2.75;1.80;;;17.70;55.90;;;;;;5034174;28;20049;-73
2022/04/25 08:00:01;;;;;;;3.15;2.10;;;17.70;55.90;;;;;;5014475;28;20049;-73
2022/04/25 08:02:28;;;;;;;2.75;2.30;;;17.50;55.50;;;;;;5015376;28;20387;-73
2022/04/25 08:04:55;;;;;;;2.70;2.20;;;16.90;55.40;;;;;;5020519;28;20045;-73
2022/04/25 08:07:23;;;;;;;3.40;1.90;;;16.30;55.00;;;;;;5032309;28;20057;-72
2022/04/25 08:09:50;;;;;;;3.28;2.10;;;16.90;50.80;;;;;;5020478;28;20060;-73
2022/04/25 08:18:00;;;;;;;3.50;2.15;;;17.00;51.50;;;;;;5015638;28;19917;-73
2022/04/25 08:20:28;;;;;;;5.07;1.90;;;16.90;55.30;;;;;;5033096;28;20099;-73
2022/04/25 08:22:55;;;;;;;3.25;2.25;;;17.20;55.10;;;;;;5034951;28;20135;-73
2022/04/25 08:25:22;;;;;;;2.38;1.80;;;16.80;55.40;;;;;;5052972;28;20084;-73
2022/04/25 08:27:50;;;;;;;3.15;1.90;;;16.30;54.70;;;;;;5018572;28;20092;-72
2022/04/25 08:30:17;;;;;;;3.92;2.30;;;17.10;49.30;;;;;;5024614;28;20049;-72
2022/04/25 08:32:46;;;;;;;3.75;2.03;;;17.70;55.60;;;;;;5015545;28;20108;-73
2022/04/25 08:35:13;;;;;;;2.22;1.70;;;17.50;55.20;;;;;;5015815;28;20057;-73
2022/04/25 08:37:40;;;;;;;4.53;2.05;;;16.40;54.50;;;;;;5014401;28;20064;-73
2022/04/25 08:40:08;;;;;;;3.80;2.10;;;16.60;54.80;;;;;;5032565;28;20502;-72
2022/04/25 08:42:35;;;;;;;4.07;2.08;;;17.20;55.00;;;;;;5015335;28;20077;-72
2022/04/25 08:45:05;;;;;;;2.97;2.13;;;16.00;54.20;;;;;;5014065;28;20486;-73
2022/04/25 08:47:35;;;;;;;3.08;2.10;;;17.10;55.00;;;;;;5014151;28;20045;-72
2022/04/25 08:50:01;;;;;;;2.92;1.92;;;17.30;55.10;;;;;;5014419;28;20060;-72
2022/04/25 08:52:28;;;;;;;3.80;1.95;;;17.60;55.30;;;;;;5049693;28;20409;-72
2022/04/25 08:54:55;;;;;;;3.25;2.20;;;;;;;;;;5017274;28;20055;-72
2022/04/25 08:57:23;;;;;;;4.45;2.00;;;17.00;55.10;;;;;;5014103;28;20057;-72
2022/04/25 08:59:50;;;;;;;2.78;2.17;;;17.30;55.30;;;;;;5014110;28;20072;-73
2022/04/25 09:02:18;;;;;;;2.65;1.77;;;16.70;54.90;;;;;;5014282;28;20140;-72
2022/04/25 09:04:46;;;;;;;4.38;1.92;;;17.30;55.30;;;;;;5030305;28;20057;-72
2022/04/25 09:07:13;;;;;;;3.53;1.80;;;17.00;54.90;;;;;;5034590;28;20049;-72
2022/04/25 09:09:41;;;;;;;3.40;2.30;;;17.00;55.20;;;;;;5034474;28;20053;-72
2022/04/25 09:12:12;;;;;;;2.95;1.90;;;17.30;55.20;;;;;;5034563;28;20084;-72
2022/04/25 09:14:40;;;;;;;2.83;2.00;;;17.10;50.30;;;;;;5018536;28;20171;-72
2022/04/25 09:17:07;;;;;;;3.38;2.10;;;17.30;55.10;;;;;;5014834;28;20049;-72
2022/04/25 09:19:36;;;;;;;2.97;2.00;;;16.30;54.60;;;;;;5014526;28;20096;-70
2022/04/25 09:22:02;;;;;;;3.88;2.00;;;17.00;54.90;;;;;;5014587;28;20057;-72
2022/04/25 09:24:30;;;;;;;3.25;1.98;;;16.00;54.30;;;;;;5028475;28;20059;-72
2022/04/25 09:27:11;;;;;;;3.28;1.90;;;17.10;54.80;;;;;;5051982;28;20055;-72
2022/04/25 09:29:38;;;;;;;2.17;1.67;;;16.40;54.70;;;;;;5052169;28;20128;-72
2022/04/25 09:32:06;;;;;;;3.45;2.03;;;17.10;55.10;;;;;;5051815;28;20049;-72
2022/04/25 09:37:18;;;;;;;2.85;1.98;;;17.60;55.30;;;;;;5032066;28;20053;-72
2022/04/25 09:39:45;;;;;;;3.10;2.05;;;17.00;55.10;;;;;;5031686;28;20052;-72
2022/04/25 09:42:11;;;;;;;2.92;2.05;;;17.10;54.80;;;;;;5013879;28;20063;-72
2022/04/25 09:44:54;;;;;;;3.15;1.90;;;16.90;54.70;;;;;;5028928;28;20052;-73
2022/04/25 09:47:28;;;;;;;2.45;1.70;;;17.20;55.10;;;;;;5020172;28;20130;-73
2022/04/25 09:50:02;;;;;;;4.75;2.38;;;18.00;55.40;;;;;;5003462;28;20136;-73
2022/04/25 09:52:30;;;;;;;2.40;1.95;;;17.20;48.90;;;;;;5013562;28;20049;-72
2022/04/25 09:54:58;;;;;;;2.80;1.95;;;17.40;55.00;;;;;;5014200;28;20445;-72
2022/04/25 09:57:31;;;;;;;3.50;2.00;;;17.40;55.00;;;;;;5013815;28;20049;-73
2022/04/25 09:59:58;;;;;;;3.05;1.70;;;17.10;54.90;;;;;;5011635;28;20051;-73
2022/04/25 10:02:25;;;;;;;3.08;2.20;;;16.20;54.50;;;;;;5013847;28;20132;-72
2022/04/25 10:04:51;;;;;;;2.17;1.75;;;17.30;55.00;;;;;;5011138;28;20060;-73
2022/04/25 10:07:18;;;;;;;2.63;1.80;;;17.80;55.00;;;;;;5013241;28;20063;-73
2022/04/25 10:09:46;;;;;;;6.68;2.78;;;17.00;54.50;;;;;;5013537;28;20129;-71
2022/04/25 10:12:13;;;;;;;4.22;2.90;;;17.10;54.30;;;;;;5031085;28;20056;-71
2022/04/25 10:14:40;;;;;;;4.22;2.47;;;17.10;54.10;;;;;;5014779;28;20092;-72
2022/04/25 10:17:06;;;;;;;5.70;2.40;;;17.00;54.50;;;;;;5030521;28;20532;-73
2022/04/25 10:19:33;;;;;;;4.18;2.20;;;17.40;54.80;;;;;;5030528;28;20253;-72
2022/04/25 10:22:00;;;;;;;3.00;2.10;;;17.20;54.50;;;;;;5029961;28;20459;-73
2022/04/25 10:24:26;;;;;;;6.63;3.20;;;17.30;54.30;;;;;;5016736;28;20056;-73
2022/04/25 10:26:57;;;;;;;4.07;2.78;;;16.50;54.30;;;;;;5023094;28;20060;-73
2022/04/25 10:29:26;;;;;;;3.88;1.92;;;17.30;54.70;;;;;;5013180;28;20190;-73
2022/04/25 10:31:56;;;;;;;3.67;2.22;;;17.40;54.70;;;;;;5010763;28;20054;-73
2022/04/25 10:34:44;;;;;;;3.70;2.40;;;17.30;54.50;;;;;;5010793;28;20064;-73
2022/04/25 10:37:30;;;;;;;3.90;2.53;;;16.30;53.70;;;;;;5010622;28;20049;-73
2022/04/25 10:39:57;;;;;;;;;;;17.30;48.90;;;;;;5043519;28;20050;-73
2022/04/25 10:45:09;;;;;;;3.83;2.30;;;17.30;54.40;;;;;;5031244;28;20054;-73
2022/04/25 10:47:36;;;;;;;3.58;2.20;;;17.40;54.40;;;;;;5031336;28;20045;-72
2022/04/25 10:50:07;;;;;;;4.78;2.15;;;17.50;54.40;;;;;;5013537;28;20057;-73
2022/04/25 10:52:56;;;;;;;5.32;2.30;;;17.30;54.20;;;;;;5013701;28;20056;-73
2022/04/25 10:55:29;;;;;;;3.67;1.95;;;16.40;53.50;;;;;;5032359;28;20056;-73
2022/04/25 10:58:19;;;;;;;3.13;2.00;;;17.60;54.20;;;;;;5017427;28;20053;-72
2022/04/25 11:00:48;;;;;;;3.00;1.80;;;17.40;54.10;;;;;;5016212;28;20052;-72
2022/04/25 11:03:15;;;;;;;2.90;1.85;;;17.30;53.80;;;;;;5017011;28;20077;-72
2022/04/25 11:05:43;;;;;;;3.33;2.05;;;16.80;53.80;;;;;;5016714;28;20153;-72
2022/04/25 11:08:35;;;;;;;3.15;2.10;;;17.50;54.20;;;;;;5016973;28;20052;-73
2022/04/25 11:11:19;;;;;;;3.78;2.10;;;17.10;53.70;;;;;;5014997;28;20054;-73
2022/04/25 11:14:23;;;;;;;4.53;1.90;;;17.60;54.00;;;;;;5014759;28;20486;-73
2022/04/25 11:17:22;;;;;;;4.97;2.05;;;16.40;53.60;;;;;;5016982;28;20129;-73
2022/04/25 11:19:51;;;;;;;3.45;2.30;;;17.60;54.30;;;;;;5016433;28;20422;-72
2022/04/25 11:22:32;;;;;;;2.50;1.95;;;17.90;54.30;;;;;;5018030;28;20056;-73
2022/04/25 11:25:08;;;;;;;3.28;2.20;;;17.50;54.00;;;;;;5025105;28;20591;-72
2022/04/25 11:28:02;;;;;;;5.10;2.50;;;17.10;54.00;;;;;;5052116;28;20564;-73
2022/04/25 11:30:29;;;;;;;10.18;2.80;;;17.80;54.60;;;;;;5019203;28;20406;-72
2022/04/25 11:33:02;;;;;;;7.38;2.90;;;17.80;53.60;;;;;;5021530;28;20052;-72
2022/04/25 11:35:29;;;;;;;19.67;4.97;;;17.40;54.50;;;;;;5025946;28;20639;-72
2022/04/25 11:37:56;;;;;;;15.82;4.15;;;17.00;54.50;;;;;;5034756;28;20481;-72
2022/04/25 11:40:23;;;;;;;13.48;4.38;;;16.70;54.30;;;;;;5050081;28;20780;-73
2022/04/25 11:42:50;;;;;;;13.88;3.33;;;17.90;55.20;;;;;;5037495;28;20052;-73
2022/04/25 11:45:16;;;;;;;18.20;4.97;;;17.30;54.30;;;;;;5033902;28;20058;-73
2022/04/25 11:47:43;;;;;;;10.52;3.60;;;18.10;54.90;;;;;;5035209;28;20067;-73
2022/04/25 11:50:11;;;;;;;13.65;3.92;;;17.60;54.60;;;;;;5037757;28;20053;-73
2022/04/25 11:52:45;;;;;;;13.15;4.18;;;17.60;54.00;;;;;;5021800;28;20053;-73
2022/04/25 11:55:12;;;;;;;15.73;4.07;;;17.70;54.60;;;;;;5016147;28;20057;-70
2022/04/25 11:57:39;;;;;;;14.50;4.07;;;17.70;54.80;;;;;;5015946;28;20151;-69
2022/04/25 12:00:16;;;;;;;12.93;4.10;;;17.80;54.40;;;;;;5032853;28;20417;-71
2022/04/25 12:02:43;;;;;;;13.25;3.60;;;17.50;54.40;;;;;;5027920;28;20131;-70
2022/04/25 12:05:25;;;;;;;12.98;3.80;;;17.70;54.30;;;;;;5053404;28;20053;-69
2022/04/25 12:16:05;;;;;;;6.32;3.17;;;16.70;53.40;;;;;;5013195;28;20057;-69
2022/04/25 12:18:33;;;;;;;8.88;3.35;;;;;;;;;;5032496;28;20068;-71
2022/04/25 12:21:03;;;;;;;9.07;3.15;;;17.50;54.20;;;;;;5016243;28;20049;-70
2022/04/25 12:23:30;;;;;;;11.23;3.60;;;17.50;54.40;;;;;;5016063;28;20127;-69
2022/04/25 12:25:58;;;;;;;9.18;3.20;;;17.40;54.40;;;;;;5032855;28;20047;-69
2022/04/25 12:28:26;;;;;;;8.40;3.40;;;17.50;48.90;;;;;;5012591;28;20049;-70
2022/04/25 12:30:54;;;;;;;9.43;3.50;;;17.60;54.00;;;;;;5016770;28;20053;-71
2022/04/25 12:33:21;;;;;;;8.00;3.00;;;17.60;54.30;;;;;;5030514;28;20068;-70
2022/04/25 12:35:49;;;;;;;6.20;2.92;;;17.50;54.20;;;;;;5019410;28;20064;-71
2022/04/25 12:38:35;;;;;;;6.63;2.85;;;17.30;54.70;;;;;;5027359;28;20389;-71
2022/04/25 12:41:02;;;;;;;4.50;2.60;;;17.70;54.80;;;;;;5029007;28;20057;-71
2022/04/25 12:43:37;;;;;;;3.58;2.10;;;17.50;49.70;;;;;;5035026;28;20462;-71
2022/04/25 12:46:05;;;;;;;;;;;17.50;49.90;;;;;;5015584;28;20538;-71
2022/04/25 12:48:33;;;;;;;5.53;2.60;;;17.60;55.40;;;;;;5032717;28;19921;-71
2022/04/25 12:51:02;;;;;;;4.75;2.30;;;17.50;55.40;;;;;;5016607;28;20056;-71
2022/04/25 12:53:39;;;;;;;5.68;2.45;;;17.60;55.20;;;;;;5034935;28;20045;-70
2022/04/25 12:56:07;;;;;;;6.00;2.60;;;17.40;55.20;;;;;;5015102;28;20050;-70
2022/04/25 12:58:34;;;;;;;4.53;2.15;;;17.70;55.70;;;;;;5013453;28;20048;-70
2022/04/25 13:01:01;;;;;;;5.57;2.50;;;17.80;55.70;;;;;;5051941;28;20053;-70
2022/04/25 13:03:28;;;;;;;3.97;2.40;;;17.60;55.40;;;;;;5034717;28;20047;-71
2022/04/25 13:05:55;;;;;;;4.57;2.50;;;17.70;55.70;;;;;;5032376;28;20465;-71
2022/04/25 13:08:21;;;;;;;6.03;2.60;;;16.60;54.80;;;;;;4999441;28;20045;-71
2022/04/25 13:10:49;;;;;;;5.05;2.35;;;17.70;55.50;;;;;;5032110;28;20048;-70
2022/04/25 13:13:16;;;;;;;3.78;2.28;;;17.70;56.00;;;;;;5038477;28;20052;-70
2022/04/25 13:15:44;;;;;;;6.88;2.40;;;17.70;55.50;;;;;;5031756;28;20050;-70
2022/04/25 13:18:11;;;;;;;3.60;2.50;;;18.10;55.70;;;;;;5032838;28;20059;-70
2022/04/25 13:20:38;;;;;;;5.55;2.40;;;18.20;55.80;;;;;;5016593;28;20057;-70
2022/04/25 13:23:07;;;;;;;7.53;2.40;;;17.70;55.50;;;;;;5014011;28;20057;-70
2022/04/25 13:25:33;;;;;;;4.68;2.30;;;17.50;55.60;;;;;;5015588;28;20486;-70
2022/04/25 13:28:01;;;;;;;3.72;2.38;;;17.60;55.50;;;;;;5031822;28;20045;-70
2022/04/25 13:30:28;;;;;;;3.67;2.40;;;;;;;;;;5031712;28;20041;-70
2022/04/25 13:32:56;;;;;;;5.30;2.60;;;17.40;55.40;;;;;;5033250;28;20512;-70
2022/04/25 13:35:24;;;;;;;4.35;2.38;;;18.40;56.20;;;;;;5013151;28;20053;-71
2022/04/25 13:37:51;;;;;;;4.63;2.38;;;17.40;55.70;;;;;;5033244;28;20049;-70